LGTG

Tanagra Airport

Tanagra, Greece
TAF LGTG 172000Z 1721/1806 25008KT 9999 FEW030
Issued Valid From Valid To
Jan-17 @ 20:00 UTC
(3 hours ago)
Jan-17 @ 21:00 UTC
(2 hours ago)
Jan-18 @ 06:00 UTC
(in 7 hours)
Jan-17 @ 21:00 to Jan-18 @ 06:00
TAF LGTG 172000Z 1721/1806 25008KT 9999 FEW030
Wind Visibility Clouds
250° at 8 knots 10,000+ meters
  • Few at 3,000' AGL
TAF LGTG 172000Z 1721/1806 25008KT 9999 FEW030
Issued Jan-17 @ 20:00 UTC
(3 hours ago)
Valid From Jan-17 @ 21:00 UTC
(2 hours ago)
Valid To Jan-18 @ 06:00 UTC
(in 7 hours)
Jan-17 @ 21:00 - Jan-18 @ 06:00
Wind Visibility
250° at 8 knots 10,000+ meters
Clouds
  • Few at 3,000' AGL